Main page
METAR-TAF:

METAR-TAF

Airports :

Genoa Cristoforo Colombo Airport

Genoa, Italy

latitude: 44-25N, longitude: 008-51E, elevation: 2 m

Current weather observation

The report was made 37 minutes ago, at 23:20 UTC
Wind 4 kt from the Northeast
Temperature 9°C
Humidity 76%
Pressure 1007 hPa
Visibility 10 km or more
Broken clouds at a height of 3000 ft

METAR: LIMJ 172320Z 04004KT 9999 BKN030 09/05 Q1007

Time: 00:57 (23:57 UTC)

Forecast

The report was made 57 minutes ago, at 23:00 UTC
Forecast valid from 18 at 00 UTC to 18 at 24 UTC
Wind 15 kt from the South/Southwest
Visibility 10 km or more
Scattered clouds at a height of 1500 ft
Broken clouds at a height of 4000 ft
Probability 40% :
Temporary
from 18 at 00 UTC to 18 at 06 UTC
Visibility: 4000 m
rain showers
Becoming
from 18 at 16 UTC to 18 at 18 UTC
rain

TAF: LIMJ 172300Z 1800/1824 20015KT 9999 SCT015 BKN040 PROB40 TEMPO 1800/1806 4000 SHRA BECMG 1816/1818 RA

Weather observations and forecasts of more than 4000 airports (METAR and TAF reports).

The available stations are represented by yellow and red dots on the map.

Hover mouse over dot to see the name of the station.

Then click to see weather observations and forecasts.

To change the map : click on the green buttons with a black cross to zoom in, on the green button with a dash to zoom out, or on the green arrows for adjacent maps.


METAR-TAF: